Time;durP1;ratioP1;P1;durP2;ratioP2;P2;SDS_P1;SDS_P2;PMS_P1;PMS_P2;Temp;Humidity;BMP_temperature;BMP_pressure;BME280_temperature;BME280_humidity;BME280_pressure;Samples;Min_cycle;Max_cycle;Signal;HPM_P1;HPM_P2
2023/08/06 00:02:57;;;;;;;;;;;22.30;51.50;;;21.50;51.00;100464.63;12253062;19;19915;-84
2023/08/06 00:06:58;;;;;;;;;;;22.30;51.70;;;21.53;51.27;100472.28;12248370;19;19948;-84
2023/08/06 00:11:00;;;;;;;;;;;22.30;51.80;;;21.33;51.06;100449.59;12252536;19;19915;-84
2023/08/06 00:15:02;;;;;;;;;;;22.30;51.70;;;21.26;51.45;100435.31;12249559;19;19915;-84
2023/08/06 00:19:03;;;;;;;;;;;22.30;51.60;;;21.39;51.21;100456.97;12247810;19;19923;-84
2023/08/06 00:23:05;;;;;;;;;;;22.20;51.60;;;21.41;51.26;100452.31;12251061;19;19922;-84
2023/08/06 00:27:07;;;;;;;;;;;22.20;51.60;;;21.47;51.13;100462.31;12249459;19;19928;-84
2023/08/06 00:31:08;;;;;;;;;;;22.20;51.70;;;21.48;51.33;100457.81;12250132;19;20365;-85
2023/08/06 00:35:10;;;;;;;;;;;22.20;51.70;;;21.39;51.41;100441.84;12249517;19;19988;-83
2023/08/06 00:39:11;;;;;;;;;;;22.20;51.90;;;21.47;51.23;100446.38;12244773;19;19918;-85
2023/08/06 00:43:13;;;;;;;;;;;22.20;51.90;;;21.26;51.35;100422.03;12249016;19;19934;-84
2023/08/06 00:47:15;;;;;;;;;;;22.20;52.20;;;21.26;51.50;100432.66;12240921;19;20306;-84
2023/08/06 00:51:16;;;;;;;;;;;22.10;51.70;;;21.24;51.55;100440.78;12248825;19;20020;-84
2023/08/06 00:55:18;;;;;;;;;;;22.10;51.70;;;21.00;51.66;100407.81;12246344;19;19971;-84
2023/08/06 00:59:20;;;;;;;;;;;22.00;51.80;;;21.11;51.50;100433.25;12243638;19;19923;-84
2023/08/06 01:03:22;;;;;;;;;;;22.00;51.90;;;21.16;51.43;100444.22;12243362;19;20280;-84
2023/08/06 01:07:45;;;;;;;;;;;22.00;52.10;;;21.10;51.61;100439.56;12246173;19;19918;-84
2023/08/06 01:12:10;;;;;;;;;;;21.90;52.10;;;21.14;51.81;100445.38;12248928;19;19926;-84
2023/08/06 01:16:14;;;;;;;;;;;21.90;52.20;;;21.04;51.55;100434.91;12244099;19;19927;-84
2023/08/06 01:20:16;;;;;;;;;;;21.80;52.20;;;21.05;51.65;100428.59;12245064;19;20291;-84
2023/08/06 01:24:18;;;;;;;;;;;21.80;52.20;;;21.00;51.83;100414.97;12245581;19;20007;-85
2023/08/06 01:28:39;;;;;;;;;;;21.80;52.30;;;21.02;51.80;100426.25;12244312;19;20322;-85
2023/08/06 01:32:46;;;;;;;;;;;21.80;52.40;;;20.95;51.98;100419.91;12245043;19;19922;-85
2023/08/06 01:36:47;;;;;;;;;;;21.70;52.60;;;20.93;51.87;100417.44;12244822;19;19923;-85
2023/08/06 01:40:49;;;;;;;;;;;21.70;52.40;;;20.83;51.88;100406.09;12245620;19;20358;-84
2023/08/06 01:44:50;;;;;;;;;;;21.70;52.40;;;20.77;51.88;100393.47;12246651;19;19919;-85
2023/08/06 01:48:52;;;;;;;;;;;21.60;52.40;;;20.82;51.66;100399.16;12239650;19;19926;-85
2023/08/06 01:52:53;;;;;;;;;;;21.60;52.40;;;20.82;51.73;100392.97;12242682;19;19935;-84
2023/08/06 01:56:55;;;;;;;;;;;21.60;52.50;;;20.74;52.16;100376.06;12240995;19;20287;-85
2023/08/06 02:00:56;;;;;;;;;;;21.50;52.50;;;20.73;51.88;100374.38;12240975;19;19919;-85
2023/08/06 02:04:59;;;;;;;;;;;21.60;52.50;;;20.68;51.75;100376.66;12245891;19;19918;-85
2023/08/06 02:09:01;;;;;;;;;;;21.50;52.50;;;20.63;52.03;100367.53;12244445;19;20278;-85
2023/08/06 02:13:02;;;;;;;;;;;21.50;52.40;;;20.68;52.06;100375.84;12245054;19;19929;-85
2023/08/06 02:17:04;;;;;;;;;;;21.50;52.50;;;20.69;51.99;100373.03;12242109;19;19923;-85
2023/08/06 02:21:05;;;;;;;;;;;21.40;52.50;;;20.47;52.04;100333.78;12244788;19;19930;-85
2023/08/06 02:25:07;;;;;;;;;;;21.40;52.60;;;20.53;52.13;100341.97;12243798;19;19926;-85
2023/08/06 02:29:09;;;;;;;;;;;21.40;52.70;;;20.31;52.00;100308.84;12253685;19;19918;-85
2023/08/06 02:33:10;;;;;;;;;;;21.40;52.60;;;20.60;52.08;100360.72;12256345;19;19915;-85
2023/08/06 02:37:12;;;;;;;;;;;21.30;52.60;;;20.46;52.16;100337.41;12252894;19;20445;-85
2023/08/06 02:41:14;;;;;;;;;;;21.30;52.60;;;20.55;52.13;100344.47;12255450;19;19923;-85
2023/08/06 02:45:15;;;;;;;;;;;21.30;52.60;;;20.45;52.11;100344.53;12253271;19;19925;-85
2023/08/06 02:49:17;;;;;;;;;;;21.30;52.60;;;20.52;52.14;100342.91;12254958;19;19919;-85
2023/08/06 02:53:18;;;;;;;;;;;21.30;52.80;;;20.50;52.38;100346.72;12253987;19;19923;-85
2023/08/06 02:57:22;;;;;;;;;;;21.30;52.70;;;20.45;52.48;100333.09;12251231;19;20250;-85
2023/08/06 03:01:28;;;;;;;;;;;21.30;52.70;;;20.34;52.20;100320.94;12255444;19;19922;-85
2023/08/06 03:05:35;;;;;;;;;;;21.30;52.70;;;20.42;52.05;100336.91;12253008;19;19939;-85
2023/08/06 03:09:37;;;;;;;;;;;21.20;52.60;;;20.41;52.08;100332.56;12253127;19;19970;-85
2023/08/06 03:13:39;;;;;;;;;;;21.20;52.60;;;20.16;52.37;100288.34;12253350;19;20261;-85
2023/08/06 03:17:41;;;;;;;;;;;21.20;52.60;;;20.40;52.42;100316.81;12250561;19;19950;-85
2023/08/06 03:21:44;;;;;;;;;;;21.20;52.70;;;20.34;52.47;100295.25;12252787;19;20270;-85
2023/08/06 03:25:46;;;;;;;;;;;21.20;52.70;;;20.40;52.57;100293.78;12253157;19;19990;-85
2023/08/06 03:29:50;;;;;;;;;;;21.20;52.80;;;20.45;52.29;100291.47;12253007;19;19930;-85
2023/08/06 03:33:54;;;;;;;;;;;21.20;52.80;;;20.39;52.22;100280.66;12252495;19;20606;-85
2023/08/06 03:38:00;;;;;;;;;;;21.20;52.90;;;20.41;52.46;100278.69;12247661;19;19911;-85
2023/08/06 03:42:03;;;;;;;;;;;21.20;52.80;;;20.32;52.77;100272.53;12251858;19;19919;-85
2023/08/06 03:46:05;;;;;;;;;;;21.20;52.70;;;20.31;52.70;100274.34;12250387;19;19914;-85
2023/08/06 03:50:07;;;;;;;;;;;21.20;52.60;;;20.30;52.46;100279.81;12252567;19;19919;-85
2023/08/06 03:54:09;;;;;;;;;;;21.20;52.60;;;20.29;52.60;100275.50;12251847;19;19911;-85
2023/08/06 03:58:11;;;;;;;;;;;21.10;52.90;;;20.00;52.62;100230.78;12248412;19;19930;-85
2023/08/06 04:02:12;;;;;;;;;;;21.10;53.20;;;20.18;52.84;100250.09;12252443;19;19921;-85
2023/08/06 04:06:14;;;;;;;;;;;21.00;52.70;;;20.07;52.85;100226.53;12250707;19;20533;-85
2023/08/06 04:10:15;;;;;;;;;;;21.00;52.90;;;20.17;52.84;100250.25;12248737;19;19922;-85
2023/08/06 04:14:17;;;;;;;;;;;21.00;52.90;;;20.15;52.45;100241.63;12250441;19;19915;-85
2023/08/06 04:18:18;;;;;;;;;;;20.90;52.90;;;20.08;52.79;100241.44;12243200;19;20680;-85
2023/08/06 04:22:20;;;;;;;;;;;20.90;52.80;;;20.01;52.85;100216.53;12248911;19;19927;-86
2023/08/06 04:26:22;;;;;;;;;;;20.90;52.90;;;19.79;52.68;100178.16;12246274;19;19934;-85
2023/08/06 04:30:24;;;;;;;;;;;20.90;53.00;;;20.02;52.60;100215.56;12249661;19;19942;-85
2023/08/06 04:34:26;;;;;;;;;;;20.80;53.00;;;19.94;52.78;100205.75;12248160;19;19939;-85
2023/08/06 04:38:28;;;;;;;;;;;20.80;53.00;;;19.81;53.08;100166.41;12244422;19;19922;-85
2023/08/06 04:42:31;;;;;;;;;;;20.80;53.10;;;20.07;52.95;100206.13;12247544;19;19953;-85
2023/08/06 04:46:32;;;;;;;;;;;20.80;53.10;;;20.04;52.91;100197.69;12247747;19;19919;-85
2023/08/06 04:50:34;;;;;;;;;;;20.80;53.30;;;19.99;52.70;100186.72;12247058;19;20337;-86
2023/08/06 04:54:36;;;;;;;;;;;20.90;53.20;;;20.09;53.20;100196.22;12247045;19;19925;-85
2023/08/06 04:58:37;;;;;;;;;;;20.90;53.60;;;20.14;53.22;100198.38;12246997;19;19982;-85
2023/08/06 05:02:39;;;;;;;;;;;20.90;53.30;;;20.04;52.84;100173.81;12249578;19;20341;-85
2023/08/06 05:06:41;;;;;;;;;;;21.00;53.30;;;20.20;53.28;100199.53;12246878;19;19918;-85
2023/08/06 05:10:44;;;;;;;;;;;21.00;53.30;;;20.24;52.87;100198.25;12249558;19;19923;-85
2023/08/06 05:14:46;;;;;;;;;;;21.00;53.30;;;20.25;53.11;100190.16;12249042;19;19929;-85
2023/08/06 05:18:47;;;;;;;;;;;21.10;53.40;;;20.19;53.15;100161.59;12245282;19;20336;-85
2023/08/06 05:22:48;;;;;;;;;;;21.10;53.30;;;20.26;53.12;100175.06;12246125;19;20614;-85
2023/08/06 05:26:50;;;;;;;;;;;21.10;53.30;;;20.27;53.31;100179.34;12247157;19;19949;-85
2023/08/06 05:30:52;;;;;;;;;;;21.10;53.30;;;20.28;53.46;100183.66;12247437;19;19914;-85
2023/08/06 05:34:54;;;;;;;;;;;21.10;53.30;;;20.22;53.17;100163.91;12245456;19;19942;-85
2023/08/06 05:38:55;;;;;;;;;;;21.10;53.30;;;20.19;53.31;100163.44;12244959;19;20238;-84
2023/08/06 05:42:57;;;;;;;;;;;21.10;53.30;;;20.24;53.52;100161.13;12246058;19;19974;-84
2023/08/06 05:46:58;;;;;;;;;;;21.10;53.30;;;20.13;53.46;100146.34;12243603;19;19919;-84
2023/08/06 05:51:00;;;;;;;;;;;21.20;53.40;;;20.28;53.30;100170.41;12245525;19;20410;-84
2023/08/06 05:55:01;;;;;;;;;;;21.20;53.40;;;20.11;53.21;100133.22;12245309;19;19919;-85
2023/08/06 05:59:03;;;;;;;;;;;21.20;53.40;;;20.22;53.50;100139.25;12243195;19;20760;-86
2023/08/06 06:03:05;;;;;;;;;;;21.20;53.40;;;20.36;53.18;100156.34;12240268;19;19915;-86
2023/08/06 06:07:06;;;;;;;;;;;21.20;53.40;;;20.37;53.48;100147.41;12244841;19;19922;-85
2023/08/06 06:11:08;;;;;;;;;;;21.20;53.40;;;20.37;53.43;100150.06;12245839;19;19907;-85
2023/08/06 06:15:09;;;;;;;;;;;21.20;53.50;;;20.39;53.21;100142.75;12243366;19;19919;-85
2023/08/06 06:19:11;;;;;;;;;;;21.30;53.50;;;20.38;53.28;100141.94;12243644;19;19947;-85
2023/08/06 06:23:14;;;;;;;;;;;21.30;53.50;;;20.28;53.59;100126.19;12242515;19;20265;-85
2023/08/06 06:27:15;;;;;;;;;;;21.30;53.50;;;20.40;53.48;100133.81;12242219;19;19930;-84
2023/08/06 06:31:17;;;;;;;;;;;21.30;53.60;;;20.34;53.78;100122.88;12242695;19;19911;-84
2023/08/06 06:35:18;;;;;;;;;;;21.30;53.60;;;20.44;53.61;100128.03;12240161;19;19919;-85
2023/08/06 06:39:20;;;;;;;;;;;21.30;53.60;;;20.44;53.37;100127.19;12241084;19;19922;-85
2023/08/06 06:43:23;;;;;;;;;;;21.30;53.70;;;20.17;53.48;100084.06;12241644;19;20543;-84
2023/08/06 06:47:24;;;;;;;;;;;21.30;53.70;;;20.48;53.58;100125.88;12240484;19;19927;-85
2023/08/06 06:51:25;;;;;;;;;;;21.30;53.90;;;20.46;53.75;100118.06;12240645;19;19926;-85
2023/08/06 06:55:27;;;;;;;;;;;21.40;53.90;;;20.43;53.46;100118.41;12241856;19;20539;-84
2023/08/06 06:59:29;;;;;;;;;;;21.30;53.90;;;20.36;53.59;100111.25;12239837;19;19955;-85
2023/08/06 07:03:30;;;;;;;;;;;21.30;54.00;;;20.43;53.99;100126.34;12241318;19;19978;-84
2023/08/06 07:07:32;;;;;;;;;;;21.30;53.90;;;20.46;53.86;100122.56;12240072;19;19918;-84
2023/08/06 07:11:34;;;;;;;;;;;21.30;54.10;;;20.34;53.81;100106.97;12242440;19;19936;-85
2023/08/06 07:15:36;;;;;;;;;;;21.30;54.10;;;20.44;53.69;100125.38;12251041;19;20628;-87
2023/08/06 07:19:38;;;;;;;;;;;21.30;54.00;;;20.40;54.03;100115.25;12248894;19;19925;-86
2023/08/06 07:23:39;;;;;;;;;;;21.40;54.10;;;20.26;54.00;100091.03;12252257;19;20401;-85
2023/08/06 07:27:41;;;;;;;;;;;21.30;54.00;;;20.43;54.06;100118.41;12244989;19;19923;-85
2023/08/06 07:31:43;;;;;;;;;;;21.30;54.00;;;20.47;53.73;100125.06;12254617;19;19914;-87
2023/08/06 07:35:44;;;;;;;;;;;21.40;54.10;;;20.49;53.92;100124.88;12243109;19;19943;-85
2023/08/06 07:39:45;;;;;;;;;;;21.30;54.10;;;20.43;54.03;100106.97;12247704;19;19919;-84
2023/08/06 07:43:47;;;;;;;;;;;21.30;54.10;;;20.49;53.99;100116.91;12251711;19;19943;-86
2023/08/06 07:47:48;;;;;;;;;;;21.40;54.30;;;20.51;53.96;100109.63;12245104;19;20230;-85
2023/08/06 07:51:51;;;;;;;;;;;21.40;54.30;;;20.32;53.98;100078.94;12251199;19;19978;-84
2023/08/06 07:55:53;;;;;;;;;;;21.40;54.30;;;20.46;54.29;100096.84;12252601;19;19919;-85
2023/08/06 07:59:55;;;;;;;;;;;21.40;54.40;;;20.58;54.21;100118.63;12247680;19;19926;-86
2023/08/06 08:04:01;;;;;;;;;;;21.40;54.40;;;20.63;53.98;100124.28;12255548;19;19955;-85
2023/08/06 08:08:04;;;;;;;;;;;21.40;54.40;;;20.42;54.35;100073.50;12240498;19;19914;-85
2023/08/06 08:12:06;;;;;;;;;;;21.50;54.50;;;20.69;54.16;100112.16;12250487;19;19911;-85
2023/08/06 08:16:07;;;;;;;;;;;21.50;54.70;;;20.71;54.34;100118.13;12250264;19;19918;-85
2023/08/06 08:20:10;;;;;;;;;;;21.50;54.60;;;20.35;54.32;100049.44;12248876;19;19918;-85
2023/08/06 08:24:15;;;;;;;;;;;21.60;54.60;;;20.47;54.34;100056.09;12243254;19;19922;-86
2023/08/06 08:28:17;;;;;;;;;;;21.60;54.60;;;20.55;54.28;100052.66;12248019;19;19931;-86
2023/08/06 08:32:18;;;;;;;;;;;21.70;54.60;;;20.54;53.94;100040.34;12241763;19;20419;-87
2023/08/06 08:36:21;;;;;;;;;;;21.70;54.60;;;20.65;54.25;100052.47;12247176;19;19931;-86
2023/08/06 08:40:25;;;;;;;;;;;21.70;54.60;;;20.80;54.04;100060.59;12242386;19;19915;-86
2023/08/06 08:44:29;;;;;;;;;;;21.80;54.60;;;20.74;54.37;100047.00;12251794;19;19925;-87
2023/08/06 08:48:34;;;;;;;;;;;21.80;54.70;;;20.55;53.94;100002.25;12247234;19;20579;-85
2023/08/06 08:52:37;;;;;;;;;;;21.80;54.70;;;20.98;54.44;100053.25;12242769;19;20319;-86
2023/08/06 08:56:39;;;;;;;;;;;21.80;54.60;;;20.98;54.36;100050.59;12243791;19;19915;-86
2023/08/06 09:00:50;;;;;;;;;;;21.80;54.60;;;20.75;54.36;100010.66;12250681;19;19927;-86
2023/08/06 09:04:53;;;;;;;;;;;21.80;54.60;;;20.76;54.43;100018.44;12248632;19;19907;-85
2023/08/06 09:09:01;;;;;;;;;;;21.80;54.70;;;20.93;54.58;100031.72;12246680;19;19925;-86
2023/08/06 09:13:03;;;;;;;;;;;21.80;54.80;;;20.93;54.45;100029.06;12247656;19;19933;-86
2023/08/06 09:17:05;;;;;;;;;;;21.80;54.80;;;20.98;54.19;100027.53;12244102;19;19914;-86
2023/08/06 09:21:12;;;;;;;;;;;21.80;54.80;;;20.87;54.61;100005.81;12252051;19;19918;-87
2023/08/06 09:25:25;;;;;;;;;;;21.90;55.20;;;21.04;54.63;100028.69;12245925;19;19939;-87
2023/08/06 09:29:37;;;;;;;;;;;21.90;55.10;;;20.97;54.41;99995.84;12248826;19;20420;-86
2023/08/06 09:33:43;;;;;;;;;;;21.90;55.10;;;20.75;54.43;99963.72;12249424;19;19984;-86
2023/08/06 09:37:45;;;;;;;;;;;21.90;55.10;;;21.07;54.39;100009.75;12242026;19;19936;-85
2023/08/06 09:41:50;;;;;;;;;;;21.90;55.10;;;21.07;54.80;100004.44;12247317;19;19931;-86
2023/08/06 09:45:51;;;;;;;;;;;22.00;55.10;;;20.93;54.25;99970.66;12247174;19;20594;-87
2023/08/06 09:49:53;;;;;;;;;;;22.00;55.20;;;21.14;54.78;99999.28;12236498;19;19933;-87
2023/08/06 09:53:54;;;;;;;;;;;22.00;55.30;;;21.15;54.80;99996.47;12237697;19;19944;-86
2023/08/06 09:57:58;;;;;;;;;;;22.10;55.30;;;21.21;54.66;100003.72;12222377;19;19919;-86
2023/08/06 10:01:59;;;;;;;;;;;22.10;55.20;;;21.16;54.78;99987.47;12242082;19;19927;-86
2023/08/06 10:06:02;;;;;;;;;;;22.10;55.20;;;21.00;54.64;99950.38;12240754;19;19925;-86
2023/08/06 10:10:04;;;;;;;;;;;22.10;55.30;;;21.05;54.85;99960.50;12241021;19;19919;-86
2023/08/06 10:14:28;;;;;;;;;;;22.10;55.20;;;21.27;54.78;99988.94;12243183;19;20377;-86
2023/08/06 10:18:30;;;;;;;;;;;22.10;55.20;;;21.12;54.93;99956.97;12238524;19;19929;-85
2023/08/06 10:22:32;;;;;;;;;;;22.10;55.30;;;21.28;54.95;99980.00;12244000;19;19927;-84
2023/08/06 10:26:33;;;;;;;;;;;22.10;55.10;;;21.16;54.73;99949.50;12239726;19;19915;-85
2023/08/06 10:30:44;;;;;;;;;;;22.10;55.20;;;21.33;54.83;99977.66;12238691;19;19918;-86
2023/08/06 10:34:58;;;;;;;;;;;22.20;55.00;;;21.32;54.63;99972.50;12228775;19;19930;-85
2023/08/06 10:39:00;;;;;;;;;;;22.20;55.10;;;21.26;54.68;99963.41;12238822;19;19926;-85
2023/08/06 10:43:03;;;;;;;;;;;22.20;55.00;;;21.30;54.54;99961.22;12237688;19;19943;-85
2023/08/06 10:47:26;;;;;;;;;;;22.20;55.00;;;21.30;54.84;99962.03;12232034;19;19922;-85
2023/08/06 10:51:28;;;;;;;;;;;22.20;54.90;;;21.25;54.63;99959.06;12248192;19;19970;-84
2023/08/06 10:55:30;;;;;;;;;;;22.10;54.80;;;21.28;54.86;99961.41;12238146;19;19947;-85
2023/08/06 10:59:32;;;;;;;;;;;22.10;54.70;;;21.23;54.73;99945.16;12245955;19;19930;-84
2023/08/06 11:03:34;;;;;;;;;;;22.10;54.80;;;21.20;54.81;99941.00;12238097;19;19926;-85
2023/08/06 11:07:36;;;;;;;;;;;22.10;54.80;;;21.19;55.07;99928.72;12218904;19;19922;-85
2023/08/06 11:11:37;;;;;;;;;;;22.10;54.80;;;21.26;55.02;99933.34;12248792;19;19923;-84
2023/08/06 11:15:39;;;;;;;;;;;22.10;54.90;;;21.24;54.77;99927.38;12246585;19;19942;-86
2023/08/06 11:19:41;;;;;;;;;;;22.10;55.00;;;21.20;55.15;99916.28;12245341;19;19941;-86
2023/08/06 11:23:43;;;;;;;;;;;22.10;55.10;;;21.21;55.08;99921.41;12249915;19;20350;-84
2023/08/06 11:27:44;;;;;;;;;;;22.10;55.10;;;21.32;54.76;99927.34;12236985;19;19919;-85
2023/08/06 11:31:46;;;;;;;;;;;22.10;55.10;;;21.27;54.73;99911.09;12245698;19;19940;-84
2023/08/06 11:35:48;;;;;;;;;;;22.20;55.20;;;21.29;55.25;99909.94;12249179;19;19919;-83
2023/08/06 11:39:50;;;;;;;;;;;22.10;55.40;;;21.31;54.92;99907.94;12241872;19;19918;-84
2023/08/06 11:43:51;;;;;;;;;;;22.20;55.20;;;21.31;54.71;99905.28;12244216;19;19953;-84
2023/08/06 11:47:53;;;;;;;;;;;22.20;55.10;;;21.31;55.12;99901.78;12245326;19;19926;-84
2023/08/06 11:51:55;;;;;;;;;;;22.20;55.30;;;21.31;54.81;99893.81;12248306;19;19926;-84
2023/08/06 11:55:57;;;;;;;;;;;22.20;55.10;;;21.27;55.02;99884.53;12248779;19;19919;-85
2023/08/06 12:00:07;;;;;;;;;;;22.20;55.10;;;21.30;54.73;99876.22;12243088;19;20271;-84
2023/08/06 12:04:14;;;;;;;;;;;22.20;55.10;;;21.25;54.97;99868.78;12244705;19;19947;-84
2023/08/06 12:08:16;;;;;;;;;;;22.20;55.20;;;21.34;54.93;99874.88;12232945;19;19935;-84
2023/08/06 12:12:17;;;;;;;;;;;22.20;55.30;;;21.37;55.20;99869.22;12247242;19;19919;-84
2023/08/06 12:16:20;;;;;;;;;;;22.20;55.30;;;21.34;55.11;99865.06;12245036;19;20351;-84
2023/08/06 12:20:22;;;;;;;;;;;22.30;55.30;;;21.45;55.18;99879.00;12243614;19;19915;-83
2023/08/06 12:24:23;;;;;;;;;;;22.30;55.40;;;21.47;55.34;99869.84;12241123;19;20319;-83
2023/08/06 12:28:25;;;;;;;;;;;22.30;55.30;;;21.45;55.16;99882.47;12242976;19;19918;-82
2023/08/06 12:32:26;;;;;;;;;;;22.30;55.30;;;21.44;54.88;99875.50;12240982;19;19922;-83
2023/08/06 12:36:28;;;;;;;;;;;22.30;55.30;;;21.41;55.09;99871.38;12243179;19;19923;-83
2023/08/06 12:40:29;;;;;;;;;;;22.40;55.50;;;21.46;55.20;99878.81;12244102;19;19949;-83
2023/08/06 12:44:31;;;;;;;;;;;22.40;55.40;;;21.29;55.17;99835.56;12242104;19;19914;-83
2023/08/06 12:48:33;;;;;;;;;;;22.40;55.40;;;21.42;55.43;99858.91;12241744;19;20361;-84
2023/08/06 12:52:34;;;;;;;;;;;22.40;55.30;;;21.41;55.09;99855.44;12246162;19;19982;-84
2023/08/06 12:56:36;;;;;;;;;;;22.40;55.30;;;21.53;55.10;99870.97;12227464;19;20179;-86
2023/08/06 13:00:37;;;;;;;;;;;22.40;55.40;;;21.55;55.43;99876.91;12236875;19;19919;-85
2023/08/06 13:04:39;;;;;;;;;;;22.40;55.40;;;21.51;55.30;99873.78;12242202;19;19986;-85
2023/08/06 13:08:41;;;;;;;;;;;22.40;55.40;;;21.53;55.16;99870.97;12241320;19;19915;-85
2023/08/06 13:12:43;;;;;;;;;;;22.40;55.50;;;21.50;55.46;99858.88;12238267;19;19935;-85
2023/08/06 13:16:45;;;;;;;;;;;22.40;55.50;;;21.59;55.43;99881.72;12237358;19;19930;-84
2023/08/06 13:20:49;;;;;;;;;;;22.40;55.50;;;21.59;55.09;99876.38;12237848;19;19990;-84
2023/08/06 13:24:50;;;;;;;;;;;22.40;55.50;;;21.50;55.53;99866.84;12243448;19;20325;-84
2023/08/06 13:28:52;;;;;;;;;;;22.40;55.50;;;21.57;55.34;99870.41;12245993;19;19927;-84
2023/08/06 13:32:55;;;;;;;;;;;22.40;55.50;;;21.51;55.40;99859.69;12247165;19;19936;-84
2023/08/06 13:36:56;;;;;;;;;;;22.40;55.50;;;21.48;55.51;99850.25;12242791;19;19922;-84
2023/08/06 13:40:58;;;;;;;;;;;22.40;55.60;;;21.55;55.36;99863.63;12238019;19;19922;-84
2023/08/06 13:45:03;;;;;;;;;;;22.40;55.60;;;21.58;55.54;99860.66;12243801;19;20253;-84
2023/08/06 13:49:04;;;;;;;;;;;22.40;55.60;;;21.45;55.42;99853.25;12245112;19;19933;-84
2023/08/06 13:53:06;;;;;;;;;;;22.40;55.90;;;21.59;55.21;99870.25;12245216;19;19990;-85
2023/08/06 13:57:07;;;;;;;;;;;22.40;55.60;;;21.61;55.54;99870.91;12243693;19;19930;-84
2023/08/06 14:01:13;;;;;;;;;;;22.40;55.70;;;21.59;55.61;99870.25;12246227;19;20015;-84
2023/08/06 14:05:15;;;;;;;;;;;22.40;55.70;;;21.57;55.37;99853.66;12243252;19;20333;-84
2023/08/06 14:09:18;;;;;;;;;;;22.40;55.80;;;21.51;55.49;99849.88;12243747;19;19935;-84
2023/08/06 14:13:24;;;;;;;;;;;22.40;55.80;;;21.60;55.43;99861.28;12243376;19;19919;-84
2023/08/06 14:17:25;;;;;;;;;;;22.40;55.80;;;21.54;55.46;99849.53;12239914;19;19939;-84
2023/08/06 14:21:27;;;;;;;;;;;22.40;55.70;;;21.61;55.28;99865.59;12244778;19;19922;-84
2023/08/06 14:25:31;;;;;;;;;;;22.40;55.70;;;21.57;55.58;99861.63;12251759;19;19950;-84
2023/08/06 14:29:33;;;;;;;;;;;22.40;55.60;;;21.52;55.46;99856.00;12257000;19;19922;-85
2023/08/06 14:33:34;;;;;;;;;;;22.40;55.50;;;21.36;55.46;99840.97;12253975;19;20718;-84
2023/08/06 14:37:36;;;;;;;;;;;22.40;55.50;;;21.51;55.30;99863.16;12252879;19;19920;-85
2023/08/06 14:41:38;;;;;;;;;;;22.40;55.60;;;21.19;55.70;99816.38;12254952;19;19935;-85
2023/08/06 14:45:40;;;;;;;;;;;22.30;55.60;;;21.50;55.41;99861.53;12249816;19;19978;-85
2023/08/06 14:49:45;;;;;;;;;;;22.40;55.60;;;21.48;55.51;99854.72;12254511;19;20334;-86
2023/08/06 14:53:46;;;;;;;;;;;22.30;55.50;;;21.48;55.51;99863.53;12252862;19;20739;-85
2023/08/06 14:57:48;;;;;;;;;;;22.30;55.60;;;21.50;55.57;99869.50;12246344;19;19951;-85
2023/08/06 15:01:51;;;;;;;;;;;22.30;55.70;;;21.45;55.51;99871.84;12251500;19;19955;-85
2023/08/06 15:05:52;;;;;;;;;;;22.30;55.70;;;21.32;55.64;99851.13;12253200;19;20324;-85
2023/08/06 15:09:55;;;;;;;;;;;22.30;55.60;;;21.42;55.73;99870.38;12254646;19;19934;-85
2023/08/06 15:13:56;;;;;;;;;;;22.30;55.60;;;21.42;55.46;99869.56;12254065;19;19920;-85
2023/08/06 15:18:07;;;;;;;;;;;22.20;55.60;;;21.41;55.47;99865.22;12247914;19;19918;-86
2023/08/06 15:22:12;;;;;;;;;;;22.20;55.70;;;21.44;55.49;99867.53;12258010;19;19922;-84
2023/08/06 15:26:22;;;;;;;;;;;22.20;55.70;;;20.89;55.43;99786.19;12254033;19;19925;-84
2023/08/06 15:30:24;;;;;;;;;;;22.30;55.70;;;21.14;55.44;99819.56;12259582;19;19917;-84
2023/08/06 15:34:31;;;;;;;;;;;22.30;55.80;;;21.38;55.65;99862.91;12256590;19;20489;-85
2023/08/06 15:38:33;;;;;;;;;;;22.20;55.70;;;21.44;55.44;99867.53;12252961;19;19939;-84
2023/08/06 15:42:40;;;;;;;;;;;22.30;55.80;;;21.48;55.69;99876.81;12249909;19;19922;-84
2023/08/06 15:46:42;;;;;;;;;;;22.30;55.80;;;21.45;55.51;99866.53;12254410;19;20242;-83
2023/08/06 15:50:47;;;;;;;;;;;22.30;55.90;;;21.48;55.67;99879.47;12254331;19;20305;-84
2023/08/06 15:54:53;;;;;;;;;;;22.30;55.80;;;20.88;55.54;99793.34;12257400;19;20389;-85
2023/08/06 15:59:01;;;;;;;;;;;22.30;55.90;;;21.08;55.37;99836.19;12251961;19;19973;-82
2023/08/06 16:03:29;;;;;;;;;;;22.10;55.60;;;21.40;55.76;99887.47;12254980;19;19971;-84
2023/08/06 16:07:31;;;;;;;;;;;22.20;55.60;;;21.20;55.35;99861.34;12250320;19;20265;-85
2023/08/06 16:11:32;;;;;;;;;;;22.20;55.60;;;21.31;55.66;99883.22;12245519;19;19933;-85
2023/08/06 16:15:34;;;;;;;;;;;22.20;55.70;;;21.30;55.38;99886.84;12247204;19;19923;-83
2023/08/06 16:19:36;;;;;;;;;;;22.10;55.60;;;21.28;55.57;99894.16;12247436;19;19942;-85
2023/08/06 16:23:38;;;;;;;;;;;22.00;55.50;;;20.97;55.63;99840.06;12250950;19;20350;-84
2023/08/06 16:27:40;;;;;;;;;;;22.10;55.60;;;21.12;55.45;99864.06;12247241;19;19926;-83
2023/08/06 16:31:42;;;;;;;;;;;22.00;55.60;;;21.08;55.53;99857.41;12250780;19;19930;-84
2023/08/06 16:35:44;;;;;;;;;;;22.00;55.60;;;20.77;55.83;99814.97;12249659;19;19930;-85
2023/08/06 16:39:45;;;;;;;;;;;22.10;55.60;;;20.80;55.62;99821.75;12244656;19;19915;-84
2023/08/06 16:43:47;;;;;;;;;;;22.00;55.60;;;21.06;55.78;99855.94;12249056;19;20291;-85
2023/08/06 16:47:49;;;;;;;;;;;22.00;55.60;;;20.94;55.49;99839.59;12244275;19;19923;-85
2023/08/06 16:51:50;;;;;;;;;;;22.00;55.70;;;20.95;55.60;99827.97;12249107;19;19939;-85
2023/08/06 16:55:57;;;;;;;;;;;22.00;55.70;;;21.00;55.76;99838.88;12247144;19;19981;-84
2023/08/06 16:59:59;;;;;;;;;;;22.00;55.80;;;20.90;55.49;99817.88;12246585;19;20342;-86
2023/08/06 17:04:00;;;;;;;;;;;22.00;55.70;;;20.90;55.61;99815.22;12244543;19;20307;-84
2023/08/06 17:08:02;;;;;;;;;;;22.00;55.70;;;20.97;55.51;99832.09;12242411;19;19951;-83
2023/08/06 17:12:04;;;;;;;;;;;22.00;55.70;;;20.99;56.08;99827.44;12238777;19;19966;-84
2023/08/06 17:16:06;;;;;;;;;;;22.00;55.70;;;21.15;55.64;99873.50;12245864;19;19928;-84
2023/08/06 17:20:08;;;;;;;;;;;22.00;55.60;;;20.83;55.85;99826.72;12243786;19;19951;-85
2023/08/06 17:24:10;;;;;;;;;;;21.90;55.50;;;20.96;55.84;99840.25;12249441;19;19919;-85
2023/08/06 17:28:12;;;;;;;;;;;21.90;55.50;;;20.80;55.76;99821.75;12241919;19;19910;-85
2023/08/06 17:32:14;;;;;;;;;;;21.90;55.50;;;20.99;55.60;99858.47;12250063;19;20290;-83
2023/08/06 17:36:15;;;;;;;;;;;21.80;55.50;;;21.01;55.64;99864.44;12247208;19;19921;-84
2023/08/06 17:40:17;;;;;;;;;;;21.80;55.40;;;20.93;55.56;99853.88;12245405;19;19911;-84
2023/08/06 17:44:18;;;;;;;;;;;21.80;55.50;;;20.72;55.82;99834.03;12243100;19;19941;-84
2023/08/06 17:48:20;;;;;;;;;;;21.70;55.40;;;20.85;55.57;99862.69;12244539;19;19915;-85
2023/08/06 17:52:22;;;;;;;;;;;21.70;55.40;;;20.76;55.91;99842.47;12243757;19;19931;-84
2023/08/06 17:56:23;;;;;;;;;;;21.70;55.40;;;20.70;55.64;99848.47;12241677;19;19982;-85
2023/08/06 18:00:25;;;;;;;;;;;21.60;55.30;;;20.70;55.94;99859.91;12238632;19;19911;-84
2023/08/06 18:04:27;;;;;;;;;;;21.60;55.30;;;20.68;55.98;99855.78;12243493;19;19946;-85
2023/08/06 18:08:30;;;;;;;;;;;21.50;55.20;;;20.60;55.52;99848.66;12243068;19;19918;-84
2023/08/06 18:12:34;;;;;;;;;;;21.50;55.30;;;20.64;55.69;99857.97;12244537;19;20279;-85
2023/08/06 18:16:36;;;;;;;;;;;21.40;55.10;;;20.54;55.52;99849.34;12241646;19;19915;-84